Accueil
METAR-TAF:

METAR-TAF

Aéroports :

Koweït, Koweït

Aéroport international de Koweït

latitude: 29-13N, longitude: 047-59E, altitude: 55 m

Observation

Le bulletin a été fait il y a 48 minutes, à 08:00 UTC
Vent 6 kt de nord
Température 44°C
Humidité 14%
Pression 996 hPa
Visibilité: 8000 m
Ciel clair

METAR: OKBK 240800Z 36006KT 8000 SKC 44/11 Q0996 NOSIG

Heure: 11:48 (08:48 UTC)

Prévision

Le bulletin a été fait il y a 4 heures et 3 minutes, à 04:45 UTC
Prévision valable du 24 à 06 UTC au 25 à 12 UTC
Vent 10 kt de nord/nord-ouest avec des rafales jusqu'à 20 kt
Visibilité: 7000 m
Ciel clair
Temporairement
du 24 à 06 UTC au 24 à 15 UTC
Visibilité: 4000 m
Chasse-poussière élevée

TAF: OKBK 240445Z 2406/2512 34010G20KT 7000 SKC TEMPO 2406/2415 4000 BLDU

Observations et prévisions météorologiques de plus de 4000 aéroports (messages METAR et TAF).

Les stations disponibles sont représentées par des disques jaunes et rouges sur la carte.

Passer la souris dessus pour voir le nom de la station.

Cliquer dessus pour voir les observations et prévisions météorologiques.

Pour changer de carte: cliquez sur les boutons verts avec une croix noire pour zoomer, sur le bouton vert avec un tiret pour effectuer un zoom arrière, ou sur les flèches vertes pour les cartes adjacentes.


METAR-TAF: